sensor_id;sensor_type;location;lat;lon;timestamp;P1;durP1;ratioP1;P2;durP2;ratioP2
16892;SDS011;8563;52.242;9.098;2024-02-16T00:00:58;3.60;;;1.30;;
16892;SDS011;8563;52.242;9.098;2024-02-16T00:03:31;3.70;;;1.30;;
16892;SDS011;8563;52.242;9.098;2024-02-16T00:06:05;3.27;;;1.30;;
16892;SDS011;8563;52.242;9.098;2024-02-16T00:08:37;3.73;;;1.20;;
16892;SDS011;8563;52.242;9.098;2024-02-16T00:11:10;3.67;;;1.40;;
16892;SDS011;8563;52.242;9.098;2024-02-16T00:13:42;2.47;;;1.30;;
16892;SDS011;8563;52.242;9.098;2024-02-16T00:16:15;3.27;;;1.00;;
16892;SDS011;8563;52.242;9.098;2024-02-16T00:18:49;2.33;;;1.30;;
16892;SDS011;8563;52.242;9.098;2024-02-16T00:21:22;3.83;;;1.07;;
16892;SDS011;8563;52.242;9.098;2024-02-16T00:23:54;2.87;;;1.30;;
16892;SDS011;8563;52.242;9.098;2024-02-16T00:26:27;4.20;;;1.40;;
16892;SDS011;8563;52.242;9.098;2024-02-16T00:28:59;5.27;;;1.17;;
16892;SDS011;8563;52.242;9.098;2024-02-16T00:31:31;4.60;;;1.33;;
16892;SDS011;8563;52.242;9.098;2024-02-16T00:34:05;4.37;;;1.30;;
16892;SDS011;8563;52.242;9.098;2024-02-16T00:36:37;3.53;;;1.30;;
16892;SDS011;8563;52.242;9.098;2024-02-16T00:39:09;3.90;;;1.50;;
16892;SDS011;8563;52.242;9.098;2024-02-16T00:41:42;2.17;;;1.30;;
16892;SDS011;8563;52.242;9.098;2024-02-16T00:44:16;3.00;;;1.20;;
16892;SDS011;8563;52.242;9.098;2024-02-16T00:46:49;2.67;;;1.07;;
16892;SDS011;8563;52.242;9.098;2024-02-16T00:49:22;1.70;;;1.17;;
16892;SDS011;8563;52.242;9.098;2024-02-16T00:51:55;2.43;;;1.17;;
16892;SDS011;8563;52.242;9.098;2024-02-16T00:54:27;5.20;;;1.13;;
16892;SDS011;8563;52.242;9.098;2024-02-16T00:56:59;2.07;;;1.20;;
16892;SDS011;8563;52.242;9.098;2024-02-16T00:59:33;4.67;;;1.57;;
16892;SDS011;8563;52.242;9.098;2024-02-16T01:02:05;3.50;;;1.10;;
16892;SDS011;8563;52.242;9.098;2024-02-16T01:04:39;2.50;;;1.30;;
16892;SDS011;8563;52.242;9.098;2024-02-16T01:07:11;2.73;;;1.33;;
16892;SDS011;8563;52.242;9.098;2024-02-16T01:09:43;4.13;;;1.50;;
16892;SDS011;8563;52.242;9.098;2024-02-16T01:12:16;3.83;;;1.33;;
16892;SDS011;8563;52.242;9.098;2024-02-16T01:14:48;2.93;;;1.27;;
16892;SDS011;8563;52.242;9.098;2024-02-16T01:17:20;4.03;;;1.20;;
16892;SDS011;8563;52.242;9.098;2024-02-16T01:19:54;3.13;;;1.30;;
16892;SDS011;8563;52.242;9.098;2024-02-16T01:22:27;5.23;;;1.60;;
16892;SDS011;8563;52.242;9.098;2024-02-16T01:24:59;3.30;;;1.17;;
16892;SDS011;8563;52.242;9.098;2024-02-16T01:27:31;3.30;;;1.27;;
16892;SDS011;8563;52.242;9.098;2024-02-16T01:30:04;2.43;;;1.30;;
16892;SDS011;8563;52.242;9.098;2024-02-16T01:32:37;2.67;;;1.10;;
16892;SDS011;8563;52.242;9.098;2024-02-16T01:35:11;2.90;;;1.23;;
16892;SDS011;8563;52.242;9.098;2024-02-16T01:37:45;4.53;;;1.40;;
16892;SDS011;8563;52.242;9.098;2024-02-16T01:40:17;2.57;;;1.07;;
16892;SDS011;8563;52.242;9.098;2024-02-16T01:42:50;2.90;;;1.47;;
16892;SDS011;8563;52.242;9.098;2024-02-16T01:45:23;3.10;;;1.30;;
16892;SDS011;8563;52.242;9.098;2024-02-16T01:47:55;1.97;;;1.20;;
16892;SDS011;8563;52.242;9.098;2024-02-16T01:50:30;2.13;;;1.27;;
16892;SDS011;8563;52.242;9.098;2024-02-16T01:53:03;5.37;;;1.47;;
16892;SDS011;8563;52.242;9.098;2024-02-16T01:55:36;2.00;;;1.10;;
16892;SDS011;8563;52.242;9.098;2024-02-16T01:58:09;3.00;;;1.20;;
16892;SDS011;8563;52.242;9.098;2024-02-16T02:00:42;2.23;;;1.07;;
16892;SDS011;8563;52.242;9.098;2024-02-16T02:03:14;3.07;;;1.40;;
16892;SDS011;8563;52.242;9.098;2024-02-16T02:05:49;1.40;;;1.00;;
16892;SDS011;8563;52.242;9.098;2024-02-16T02:08:25;2.73;;;1.13;;
16892;SDS011;8563;52.242;9.098;2024-02-16T02:10:57;2.10;;;1.13;;
16892;SDS011;8563;52.242;9.098;2024-02-16T02:13:29;2.53;;;1.47;;
16892;SDS011;8563;52.242;9.098;2024-02-16T02:16:02;4.97;;;1.30;;
16892;SDS011;8563;52.242;9.098;2024-02-16T02:18:36;1.80;;;1.13;;
16892;SDS011;8563;52.242;9.098;2024-02-16T02:21:09;2.27;;;1.10;;
16892;SDS011;8563;52.242;9.098;2024-02-16T02:23:45;3.63;;;1.30;;
16892;SDS011;8563;52.242;9.098;2024-02-16T02:26:17;2.03;;;0.90;;
16892;SDS011;8563;52.242;9.098;2024-02-16T02:28:49;3.77;;;1.30;;
16892;SDS011;8563;52.242;9.098;2024-02-16T02:31:22;3.43;;;1.17;;
16892;SDS011;8563;52.242;9.098;2024-02-16T02:33:54;1.70;;;1.10;;
16892;SDS011;8563;52.242;9.098;2024-02-16T02:36:26;2.53;;;1.40;;
16892;SDS011;8563;52.242;9.098;2024-02-16T02:39:00;2.47;;;1.10;;
16892;SDS011;8563;52.242;9.098;2024-02-16T02:41:32;2.13;;;1.30;;
16892;SDS011;8563;52.242;9.098;2024-02-16T02:44:05;2.20;;;1.27;;
16892;SDS011;8563;52.242;9.098;2024-02-16T02:46:37;4.27;;;1.33;;
16892;SDS011;8563;52.242;9.098;2024-02-16T02:49:09;2.93;;;1.20;;
16892;SDS011;8563;52.242;9.098;2024-02-16T02:51:42;2.10;;;1.10;;
16892;SDS011;8563;52.242;9.098;2024-02-16T02:54:15;2.00;;;1.10;;
16892;SDS011;8563;52.242;9.098;2024-02-16T02:56:47;4.23;;;1.20;;
16892;SDS011;8563;52.242;9.098;2024-02-16T02:59:20;2.80;;;1.23;;
16892;SDS011;8563;52.242;9.098;2024-02-16T03:01:52;1.43;;;1.07;;
16892;SDS011;8563;52.242;9.098;2024-02-16T03:04:24;3.93;;;1.30;;
16892;SDS011;8563;52.242;9.098;2024-02-16T03:06:56;2.17;;;1.10;;
16892;SDS011;8563;52.242;9.098;2024-02-16T03:09:30;4.43;;;1.40;;
16892;SDS011;8563;52.242;9.098;2024-02-16T03:12:03;1.90;;;1.17;;
16892;SDS011;8563;52.242;9.098;2024-02-16T03:14:36;4.93;;;1.57;;
16892;SDS011;8563;52.242;9.098;2024-02-16T03:17:09;3.20;;;1.40;;
16892;SDS011;8563;52.242;9.098;2024-02-16T03:19:41;1.83;;;1.10;;
16892;SDS011;8563;52.242;9.098;2024-02-16T03:22:13;3.50;;;1.20;;
16892;SDS011;8563;52.242;9.098;2024-02-16T03:24:47;3.03;;;1.07;;
16892;SDS011;8563;52.242;9.098;2024-02-16T03:27:19;4.93;;;1.40;;
16892;SDS011;8563;52.242;9.098;2024-02-16T03:29:52;1.30;;;1.00;;
16892;SDS011;8563;52.242;9.098;2024-02-16T03:32:24;2.37;;;0.90;;
16892;SDS011;8563;52.242;9.098;2024-02-16T03:34:56;1.40;;;0.87;;
16892;SDS011;8563;52.242;9.098;2024-02-16T03:37:29;2.87;;;1.20;;
16892;SDS011;8563;52.242;9.098;2024-02-16T03:40:05;2.83;;;1.10;;
16892;SDS011;8563;52.242;9.098;2024-02-16T03:42:40;2.50;;;1.00;;
16892;SDS011;8563;52.242;9.098;2024-02-16T03:45:12;2.07;;;1.10;;
16892;SDS011;8563;52.242;9.098;2024-02-16T03:47:44;2.00;;;1.10;;
16892;SDS011;8563;52.242;9.098;2024-02-16T03:50:19;3.77;;;1.23;;
16892;SDS011;8563;52.242;9.098;2024-02-16T03:52:52;2.60;;;1.60;;
16892;SDS011;8563;52.242;9.098;2024-02-16T03:55:26;2.60;;;1.07;;
16892;SDS011;8563;52.242;9.098;2024-02-16T03:57:58;2.43;;;1.30;;
16892;SDS011;8563;52.242;9.098;2024-02-16T04:00:30;1.57;;;1.10;;
16892;SDS011;8563;52.242;9.098;2024-02-16T04:03:03;2.73;;;1.20;;
16892;SDS011;8563;52.242;9.098;2024-02-16T04:05:35;1.90;;;1.03;;
16892;SDS011;8563;52.242;9.098;2024-02-16T04:08:09;2.50;;;1.20;;
16892;SDS011;8563;52.242;9.098;2024-02-16T04:10:44;2.00;;;1.10;;
16892;SDS011;8563;52.242;9.098;2024-02-16T04:13:17;4.67;;;1.40;;
16892;SDS011;8563;52.242;9.098;2024-02-16T04:15:49;1.87;;;1.07;;
16892;SDS011;8563;52.242;9.098;2024-02-16T04:18:21;3.60;;;1.00;;
16892;SDS011;8563;52.242;9.098;2024-02-16T04:20:54;2.07;;;1.03;;
16892;SDS011;8563;52.242;9.098;2024-02-16T04:23:26;2.33;;;1.30;;
16892;SDS011;8563;52.242;9.098;2024-02-16T04:26:00;3.13;;;1.13;;
16892;SDS011;8563;52.242;9.098;2024-02-16T04:28:32;3.23;;;1.30;;
16892;SDS011;8563;52.242;9.098;2024-02-16T04:31:04;2.57;;;1.10;;
16892;SDS011;8563;52.242;9.098;2024-02-16T04:33:36;2.97;;;1.13;;
16892;SDS011;8563;52.242;9.098;2024-02-16T04:36:09;4.17;;;1.63;;
16892;SDS011;8563;52.242;9.098;2024-02-16T04:38:41;1.53;;;1.00;;
16892;SDS011;8563;52.242;9.098;2024-02-16T04:41:15;3.87;;;1.13;;
16892;SDS011;8563;52.242;9.098;2024-02-16T04:43:47;2.90;;;1.43;;
16892;SDS011;8563;52.242;9.098;2024-02-16T04:46:19;4.03;;;1.20;;
16892;SDS011;8563;52.242;9.098;2024-02-16T04:48:52;2.20;;;1.20;;
16892;SDS011;8563;52.242;9.098;2024-02-16T04:51:24;3.83;;;1.40;;
16892;SDS011;8563;52.242;9.098;2024-02-16T04:53:57;1.77;;;1.30;;
16892;SDS011;8563;52.242;9.098;2024-02-16T04:56:30;3.47;;;1.30;;
16892;SDS011;8563;52.242;9.098;2024-02-16T04:59:03;1.83;;;1.07;;
16892;SDS011;8563;52.242;9.098;2024-02-16T05:01:35;1.80;;;1.20;;
16892;SDS011;8563;52.242;9.098;2024-02-16T05:04:07;5.50;;;1.50;;
16892;SDS011;8563;52.242;9.098;2024-02-16T05:06:40;4.00;;;1.20;;
16892;SDS011;8563;52.242;9.098;2024-02-16T05:09:12;2.40;;;1.20;;
16892;SDS011;8563;52.242;9.098;2024-02-16T05:11:48;2.47;;;1.20;;
16892;SDS011;8563;52.242;9.098;2024-02-16T05:14:21;1.83;;;1.13;;
16892;SDS011;8563;52.242;9.098;2024-02-16T05:16:54;1.93;;;1.23;;
16892;SDS011;8563;52.242;9.098;2024-02-16T05:19:26;3.27;;;1.37;;
16892;SDS011;8563;52.242;9.098;2024-02-16T05:21:59;2.70;;;1.60;;
16892;SDS011;8563;52.242;9.098;2024-02-16T05:24:31;2.73;;;1.03;;
16892;SDS011;8563;52.242;9.098;2024-02-16T05:27:05;3.53;;;1.17;;
16892;SDS011;8563;52.242;9.098;2024-02-16T05:29:38;6.03;;;1.53;;
16892;SDS011;8563;52.242;9.098;2024-02-16T05:32:10;2.33;;;1.30;;
16892;SDS011;8563;52.242;9.098;2024-02-16T05:34:43;4.57;;;1.50;;
16892;SDS011;8563;52.242;9.098;2024-02-16T05:37:15;2.87;;;1.47;;
16892;SDS011;8563;52.242;9.098;2024-02-16T05:39:47;5.43;;;1.20;;
16892;SDS011;8563;52.242;9.098;2024-02-16T05:42:28;2.77;;;1.20;;
16892;SDS011;8563;52.242;9.098;2024-02-16T05:45:01;3.20;;;1.23;;
16892;SDS011;8563;52.242;9.098;2024-02-16T05:47:33;2.67;;;1.37;;
16892;SDS011;8563;52.242;9.098;2024-02-16T05:50:06;3.20;;;1.63;;
16892;SDS011;8563;52.242;9.098;2024-02-16T05:52:38;5.80;;;1.40;;
16892;SDS011;8563;52.242;9.098;2024-02-16T05:55:11;3.67;;;1.23;;
16892;SDS011;8563;52.242;9.098;2024-02-16T05:57:45;3.43;;;1.50;;
16892;SDS011;8563;52.242;9.098;2024-02-16T06:00:18;3.10;;;1.47;;
16892;SDS011;8563;52.242;9.098;2024-02-16T06:02:51;3.10;;;1.33;;
16892;SDS011;8563;52.242;9.098;2024-02-16T06:05:23;3.83;;;1.20;;
16892;SDS011;8563;52.242;9.098;2024-02-16T06:07:56;2.77;;;1.30;;
16892;SDS011;8563;52.242;9.098;2024-02-16T06:10:29;2.97;;;1.33;;
16892;SDS011;8563;52.242;9.098;2024-02-16T06:13:03;5.60;;;1.60;;
16892;SDS011;8563;52.242;9.098;2024-02-16T06:15:36;3.70;;;1.20;;
16892;SDS011;8563;52.242;9.098;2024-02-16T06:18:08;3.67;;;1.30;;
16892;SDS011;8563;52.242;9.098;2024-02-16T06:20:41;1.97;;;1.17;;
16892;SDS011;8563;52.242;9.098;2024-02-16T06:23:13;2.13;;;1.20;;
16892;SDS011;8563;52.242;9.098;2024-02-16T06:25:47;2.37;;;1.20;;
16892;SDS011;8563;52.242;9.098;2024-02-16T06:28:21;2.73;;;1.40;;
16892;SDS011;8563;52.242;9.098;2024-02-16T06:30:53;3.60;;;2.10;;
16892;SDS011;8563;52.242;9.098;2024-02-16T06:33:26;4.77;;;2.10;;
16892;SDS011;8563;52.242;9.098;2024-02-16T06:35:58;3.50;;;1.93;;
16892;SDS011;8563;52.242;9.098;2024-02-16T06:38:30;4.40;;;2.20;;
16892;SDS011;8563;52.242;9.098;2024-02-16T06:41:03;5.37;;;1.60;;
16892;SDS011;8563;52.242;9.098;2024-02-16T06:43:37;4.80;;;1.50;;
16892;SDS011;8563;52.242;9.098;2024-02-16T06:46:09;3.83;;;1.60;;
16892;SDS011;8563;52.242;9.098;2024-02-16T06:48:42;3.00;;;1.30;;
16892;SDS011;8563;52.242;9.098;2024-02-16T06:51:15;3.87;;;2.00;;
16892;SDS011;8563;52.242;9.098;2024-02-16T06:53:47;4.33;;;1.83;;
16892;SDS011;8563;52.242;9.098;2024-02-16T06:56:19;3.67;;;1.73;;
16892;SDS011;8563;52.242;9.098;2024-02-16T06:58:53;3.53;;;1.87;;
16892;SDS011;8563;52.242;9.098;2024-02-16T07:01:26;5.20;;;1.97;;
16892;SDS011;8563;52.242;9.098;2024-02-16T07:03:59;3.60;;;1.97;;
16892;SDS011;8563;52.242;9.098;2024-02-16T07:06:32;3.60;;;1.57;;
16892;SDS011;8563;52.242;9.098;2024-02-16T07:09:04;3.63;;;1.50;;
16892;SDS011;8563;52.242;9.098;2024-02-16T07:11:36;2.97;;;1.63;;
16892;SDS011;8563;52.242;9.098;2024-02-16T07:14:10;3.87;;;2.07;;
16892;SDS011;8563;52.242;9.098;2024-02-16T07:16:43;3.53;;;1.73;;
16892;SDS011;8563;52.242;9.098;2024-02-16T07:19:15;2.07;;;1.70;;
16892;SDS011;8563;52.242;9.098;2024-02-16T07:21:47;2.23;;;1.40;;
16892;SDS011;8563;52.242;9.098;2024-02-16T07:24:20;2.27;;;1.60;;
16892;SDS011;8563;52.242;9.098;2024-02-16T07:26:52;2.67;;;1.43;;
16892;SDS011;8563;52.242;9.098;2024-02-16T07:29:26;5.33;;;1.50;;
16892;SDS011;8563;52.242;9.098;2024-02-16T07:31:58;4.63;;;1.60;;
16892;SDS011;8563;52.242;9.098;2024-02-16T07:34:31;1.70;;;1.50;;
16892;SDS011;8563;52.242;9.098;2024-02-16T07:37:03;3.07;;;1.50;;
16892;SDS011;8563;52.242;9.098;2024-02-16T07:39:36;2.20;;;1.40;;
16892;SDS011;8563;52.242;9.098;2024-02-16T07:42:08;2.50;;;1.60;;
16892;SDS011;8563;52.242;9.098;2024-02-16T07:44:44;3.97;;;1.63;;
16892;SDS011;8563;52.242;9.098;2024-02-16T07:47:16;2.43;;;1.60;;
16892;SDS011;8563;52.242;9.098;2024-02-16T07:49:49;2.97;;;1.60;;
16892;SDS011;8563;52.242;9.098;2024-02-16T07:52:21;3.13;;;1.53;;
16892;SDS011;8563;52.242;9.098;2024-02-16T07:54:53;4.20;;;1.60;;
16892;SDS011;8563;52.242;9.098;2024-02-16T07:57:25;3.77;;;1.63;;
16892;SDS011;8563;52.242;9.098;2024-02-16T07:59:59;2.80;;;1.40;;
16892;SDS011;8563;52.242;9.098;2024-02-16T08:02:35;4.07;;;1.60;;
16892;SDS011;8563;52.242;9.098;2024-02-16T08:05:07;3.23;;;1.60;;
16892;SDS011;8563;52.242;9.098;2024-02-16T08:07:40;1.40;;;1.30;;
16892;SDS011;8563;52.242;9.098;2024-02-16T08:10:12;2.87;;;1.77;;
16892;SDS011;8563;52.242;9.098;2024-02-16T08:12:45;2.77;;;1.63;;
16892;SDS011;8563;52.242;9.098;2024-02-16T08:15:19;3.73;;;1.50;;
16892;SDS011;8563;52.242;9.098;2024-02-16T08:17:54;3.27;;;1.30;;
16892;SDS011;8563;52.242;9.098;2024-02-16T08:20:26;1.97;;;1.50;;
16892;SDS011;8563;52.242;9.098;2024-02-16T08:22:58;3.43;;;1.40;;
16892;SDS011;8563;52.242;9.098;2024-02-16T08:25:30;2.30;;;1.50;;
16892;SDS011;8563;52.242;9.098;2024-02-16T08:28:04;2.73;;;1.63;;
16892;SDS011;8563;52.242;9.098;2024-02-16T08:30:38;3.87;;;1.63;;
16892;SDS011;8563;52.242;9.098;2024-02-16T08:33:11;3.27;;;1.37;;
16892;SDS011;8563;52.242;9.098;2024-02-16T08:35:44;2.80;;;1.30;;
16892;SDS011;8563;52.242;9.098;2024-02-16T08:38:16;2.97;;;1.60;;
16892;SDS011;8563;52.242;9.098;2024-02-16T08:40:49;3.17;;;1.70;;
16892;SDS011;8563;52.242;9.098;2024-02-16T08:43:22;3.43;;;1.83;;
16892;SDS011;8563;52.242;9.098;2024-02-16T08:45:56;2.17;;;1.70;;
16892;SDS011;8563;52.242;9.098;2024-02-16T08:48:28;2.53;;;1.70;;
16892;SDS011;8563;52.242;9.098;2024-02-16T08:51:00;3.40;;;1.53;;
16892;SDS011;8563;52.242;9.098;2024-02-16T08:53:32;2.83;;;1.40;;
16892;SDS011;8563;52.242;9.098;2024-02-16T08:56:08;2.27;;;1.60;;
16892;SDS011;8563;52.242;9.098;2024-02-16T08:58:41;3.57;;;1.60;;
16892;SDS011;8563;52.242;9.098;2024-02-16T09:01:16;2.87;;;1.50;;
16892;SDS011;8563;52.242;9.098;2024-02-16T09:03:48;3.20;;;1.63;;
16892;SDS011;8563;52.242;9.098;2024-02-16T09:06:21;2.70;;;1.60;;
16892;SDS011;8563;52.242;9.098;2024-02-16T09:08:53;5.60;;;1.63;;
16892;SDS011;8563;52.242;9.098;2024-02-16T09:11:26;4.50;;;1.77;;
16892;SDS011;8563;52.242;9.098;2024-02-16T09:13:58;2.73;;;1.50;;
16892;SDS011;8563;52.242;9.098;2024-02-16T09:16:32;3.53;;;1.60;;
16892;SDS011;8563;52.242;9.098;2024-02-16T09:19:05;1.77;;;1.63;;
16892;SDS011;8563;52.242;9.098;2024-02-16T09:21:37;2.80;;;1.60;;
16892;SDS011;8563;52.242;9.098;2024-02-16T09:24:09;3.43;;;1.50;;
16892;SDS011;8563;52.242;9.098;2024-02-16T09:26:48;4.20;;;1.80;;
16892;SDS011;8563;52.242;9.098;2024-02-16T09:29:20;1.67;;;1.37;;
16892;SDS011;8563;52.242;9.098;2024-02-16T09:31:54;3.60;;;1.63;;
16892;SDS011;8563;52.242;9.098;2024-02-16T09:34:26;2.97;;;1.50;;
16892;SDS011;8563;52.242;9.098;2024-02-16T09:36:59;2.13;;;1.80;;
16892;SDS011;8563;52.242;9.098;2024-02-16T09:39:31;4.37;;;2.00;;
16892;SDS011;8563;52.242;9.098;2024-02-16T09:42:04;2.37;;;1.67;;
16892;SDS011;8563;52.242;9.098;2024-02-16T09:44:37;2.00;;;1.33;;
16892;SDS011;8563;52.242;9.098;2024-02-16T09:47:11;3.77;;;1.67;;
16892;SDS011;8563;52.242;9.098;2024-02-16T09:49:44;3.10;;;1.63;;
16892;SDS011;8563;52.242;9.098;2024-02-16T09:52:16;3.70;;;1.70;;
16892;SDS011;8563;52.242;9.098;2024-02-16T09:54:49;2.93;;;1.67;;
16892;SDS011;8563;52.242;9.098;2024-02-16T09:57:21;4.07;;;1.80;;
16892;SDS011;8563;52.242;9.098;2024-02-16T09:59:53;3.40;;;1.90;;
16892;SDS011;8563;52.242;9.098;2024-02-16T10:02:27;2.83;;;1.63;;
16892;SDS011;8563;52.242;9.098;2024-02-16T10:04:59;2.53;;;1.77;;
16892;SDS011;8563;52.242;9.098;2024-02-16T10:07:40;2.50;;;1.60;;
16892;SDS011;8563;52.242;9.098;2024-02-16T10:10:22;2.47;;;1.53;;
16892;SDS011;8563;52.242;9.098;2024-02-16T10:13:00;4.43;;;1.80;;
16892;SDS011;8563;52.242;9.098;2024-02-16T10:15:34;2.13;;;1.43;;
16892;SDS011;8563;52.242;9.098;2024-02-16T10:18:08;2.50;;;1.60;;
16892;SDS011;8563;52.242;9.098;2024-02-16T10:20:40;3.60;;;1.43;;
16892;SDS011;8563;52.242;9.098;2024-02-16T10:23:15;4.47;;;1.73;;
16892;SDS011;8563;52.242;9.098;2024-02-16T10:25:48;3.10;;;1.60;;
16892;SDS011;8563;52.242;9.098;2024-02-16T10:28:20;3.53;;;1.70;;
16892;SDS011;8563;52.242;9.098;2024-02-16T10:30:58;2.77;;;1.73;;
16892;SDS011;8563;52.242;9.098;2024-02-16T10:33:34;2.47;;;1.67;;
16892;SDS011;8563;52.242;9.098;2024-02-16T10:36:07;5.27;;;1.70;;
16892;SDS011;8563;52.242;9.098;2024-02-16T10:38:40;3.63;;;1.50;;
16892;SDS011;8563;52.242;9.098;2024-02-16T10:41:14;2.57;;;1.70;;
16892;SDS011;8563;52.242;9.098;2024-02-16T10:43:48;2.90;;;1.83;;
16892;SDS011;8563;52.242;9.098;2024-02-16T10:46:20;6.17;;;1.83;;
16892;SDS011;8563;52.242;9.098;2024-02-16T10:48:55;1.90;;;1.47;;
16892;SDS011;8563;52.242;9.098;2024-02-16T10:51:28;3.00;;;1.80;;
16892;SDS011;8563;52.242;9.098;2024-02-16T10:54:02;3.20;;;1.60;;
16892;SDS011;8563;52.242;9.098;2024-02-16T10:56:36;5.10;;;2.27;;
16892;SDS011;8563;52.242;9.098;2024-02-16T10:59:09;4.73;;;1.77;;
16892;SDS011;8563;52.242;9.098;2024-02-16T11:01:43;5.10;;;1.93;;
16892;SDS011;8563;52.242;9.098;2024-02-16T11:04:17;3.53;;;1.67;;
16892;SDS011;8563;52.242;9.098;2024-02-16T11:06:52;3.05;;;1.88;;
16892;SDS011;8563;52.242;9.098;2024-02-16T11:09:26;4.30;;;1.50;;
16892;SDS011;8563;52.242;9.098;2024-02-16T11:11:59;4.00;;;1.70;;
16892;SDS011;8563;52.242;9.098;2024-02-16T11:14:36;3.50;;;1.87;;
16892;SDS011;8563;52.242;9.098;2024-02-16T11:17:09;8.60;;;2.00;;
16892;SDS011;8563;52.242;9.098;2024-02-16T11:19:44;3.50;;;1.63;;
16892;SDS011;8563;52.242;9.098;2024-02-16T11:22:18;5.03;;;1.47;;
16892;SDS011;8563;52.242;9.098;2024-02-16T11:24:53;3.90;;;1.75;;
16892;SDS011;8563;52.242;9.098;2024-02-16T11:27:26;3.42;;;2.13;;
16892;SDS011;8563;52.242;9.098;2024-02-16T11:30:04;4.90;;;2.13;;
16892;SDS011;8563;52.242;9.098;2024-02-16T11:32:38;5.25;;;2.03;;
16892;SDS011;8563;52.242;9.098;2024-02-16T11:35:12;7.25;;;2.40;;
16892;SDS011;8563;52.242;9.098;2024-02-16T11:37:46;5.07;;;2.28;;
16892;SDS011;8563;52.242;9.098;2024-02-16T11:40:19;2.95;;;1.98;;
16892;SDS011;8563;52.242;9.098;2024-02-16T11:42:57;4.50;;;1.85;;
16892;SDS011;8563;52.242;9.098;2024-02-16T11:45:33;8.07;;;2.25;;
16892;SDS011;8563;52.242;9.098;2024-02-16T11:48:06;4.50;;;2.17;;
16892;SDS011;8563;52.242;9.098;2024-02-16T11:50:41;6.20;;;2.10;;
16892;SDS011;8563;52.242;9.098;2024-02-16T11:53:15;5.63;;;2.30;;
16892;SDS011;8563;52.242;9.098;2024-02-16T11:55:50;5.90;;;2.00;;
16892;SDS011;8563;52.242;9.098;2024-02-16T11:58:23;5.43;;;2.07;;
16892;SDS011;8563;52.242;9.098;2024-02-16T12:00:56;3.33;;;2.00;;
16892;SDS011;8563;52.242;9.098;2024-02-16T12:03:30;3.57;;;2.10;;
16892;SDS011;8563;52.242;9.098;2024-02-16T12:06:04;4.27;;;2.00;;
16892;SDS011;8563;52.242;9.098;2024-02-16T12:08:37;5.50;;;2.40;;
16892;SDS011;8563;52.242;9.098;2024-02-16T12:11:10;5.33;;;2.30;;
16892;SDS011;8563;52.242;9.098;2024-02-16T12:13:44;3.85;;;2.35;;
16892;SDS011;8563;52.242;9.098;2024-02-16T12:16:18;5.33;;;2.50;;
16892;SDS011;8563;52.242;9.098;2024-02-16T12:18:51;3.80;;;2.00;;
16892;SDS011;8563;52.242;9.098;2024-02-16T12:21:34;3.50;;;2.17;;
16892;SDS011;8563;52.242;9.098;2024-02-16T12:24:07;6.47;;;2.33;;
16892;SDS011;8563;52.242;9.098;2024-02-16T12:26:39;3.40;;;2.23;;
16892;SDS011;8563;52.242;9.098;2024-02-16T12:29:11;3.90;;;2.10;;
16892;SDS011;8563;52.242;9.098;2024-02-16T12:31:44;4.07;;;2.10;;
16892;SDS011;8563;52.242;9.098;2024-02-16T12:34:19;3.60;;;2.20;;
16892;SDS011;8563;52.242;9.098;2024-02-16T12:36:53;4.13;;;2.33;;
16892;SDS011;8563;52.242;9.098;2024-02-16T12:39:25;4.77;;;2.43;;
16892;SDS011;8563;52.242;9.098;2024-02-16T12:41:57;4.07;;;2.30;;
16892;SDS011;8563;52.242;9.098;2024-02-16T12:44:29;4.37;;;2.23;;
16892;SDS011;8563;52.242;9.098;2024-02-16T12:47:02;4.90;;;2.50;;
16892;SDS011;8563;52.242;9.098;2024-02-16T12:49:34;6.07;;;2.37;;
16892;SDS011;8563;52.242;9.098;2024-02-16T12:52:08;4.70;;;2.50;;
16892;SDS011;8563;52.242;9.098;2024-02-16T12:54:40;9.97;;;3.00;;
16892;SDS011;8563;52.242;9.098;2024-02-16T12:57:13;6.30;;;2.40;;
16892;SDS011;8563;52.242;9.098;2024-02-16T12:59:45;7.50;;;2.50;;
16892;SDS011;8563;52.242;9.098;2024-02-16T13:02:17;4.83;;;2.67;;
16892;SDS011;8563;52.242;9.098;2024-02-16T13:04:49;4.73;;;2.33;;
16892;SDS011;8563;52.242;9.098;2024-02-16T13:07:25;4.37;;;2.70;;
16892;SDS011;8563;52.242;9.098;2024-02-16T13:09:57;6.43;;;2.90;;
16892;SDS011;8563;52.242;9.098;2024-02-16T13:12:29;4.17;;;2.30;;
16892;SDS011;8563;52.242;9.098;2024-02-16T13:15:01;5.30;;;2.50;;
16892;SDS011;8563;52.242;9.098;2024-02-16T13:17:35;3.67;;;2.63;;
16892;SDS011;8563;52.242;9.098;2024-02-16T13:20:08;7.23;;;3.10;;
16892;SDS011;8563;52.242;9.098;2024-02-16T13:22:42;5.57;;;3.07;;
16892;SDS011;8563;52.242;9.098;2024-02-16T13:25:14;5.23;;;3.03;;
16892;SDS011;8563;52.242;9.098;2024-02-16T13:27:47;5.13;;;3.03;;
16892;SDS011;8563;52.242;9.098;2024-02-16T13:30:20;6.68;;;2.83;;
16892;SDS011;8563;52.242;9.098;2024-02-16T13:32:52;7.87;;;3.00;;
16892;SDS011;8563;52.242;9.098;2024-02-16T13:35:24;7.00;;;2.83;;
16892;SDS011;8563;52.242;9.098;2024-02-16T13:38:00;5.83;;;3.20;;
16892;SDS011;8563;52.242;9.098;2024-02-16T13:40:32;5.73;;;3.10;;
16892;SDS011;8563;52.242;9.098;2024-02-16T13:43:06;8.60;;;3.40;;
16892;SDS011;8563;52.242;9.098;2024-02-16T13:45:48;7.63;;;3.10;;
16892;SDS011;8563;52.242;9.098;2024-02-16T13:48:21;7.03;;;3.50;;
16892;SDS011;8563;52.242;9.098;2024-02-16T13:50:54;5.93;;;3.53;;
16892;SDS011;8563;52.242;9.098;2024-02-16T13:53:28;7.17;;;4.07;;
16892;SDS011;8563;52.242;9.098;2024-02-16T13:56:04;8.57;;;3.73;;
16892;SDS011;8563;52.242;9.098;2024-02-16T13:58:37;6.00;;;3.80;;
16892;SDS011;8563;52.242;9.098;2024-02-16T14:01:10;8.80;;;4.20;;
16892;SDS011;8563;52.242;9.098;2024-02-16T14:03:42;6.20;;;4.30;;
16892;SDS011;8563;52.242;9.098;2024-02-16T14:06:14;10.03;;;5.27;;
16892;SDS011;8563;52.242;9.098;2024-02-16T14:08:48;9.17;;;5.23;;
16892;SDS011;8563;52.242;9.098;2024-02-16T14:11:22;7.97;;;5.40;;
16892;SDS011;8563;52.242;9.098;2024-02-16T14:13:55;9.53;;;5.70;;
16892;SDS011;8563;52.242;9.098;2024-02-16T14:16:27;9.57;;;6.40;;
16892;SDS011;8563;52.242;9.098;2024-02-16T14:19:00;11.23;;;6.07;;
16892;SDS011;8563;52.242;9.098;2024-02-16T14:21:32;8.63;;;5.93;;
16892;SDS011;8563;52.242;9.098;2024-02-16T14:24:06;9.27;;;6.13;;
16892;SDS011;8563;52.242;9.098;2024-02-16T14:26:41;10.47;;;6.17;;
16892;SDS011;8563;52.242;9.098;2024-02-16T14:29:13;10.77;;;6.00;;
16892;SDS011;8563;52.242;9.098;2024-02-16T14:31:45;10.67;;;6.00;;
16892;SDS011;8563;52.242;9.098;2024-02-16T14:34:19;10.93;;;6.50;;
16892;SDS011;8563;52.242;9.098;2024-02-16T14:36:51;8.17;;;5.90;;
16892;SDS011;8563;52.242;9.098;2024-02-16T14:39:25;9.57;;;6.20;;
16892;SDS011;8563;52.242;9.098;2024-02-16T14:41:57;12.93;;;10.73;;
16892;SDS011;8563;52.242;9.098;2024-02-16T14:44:30;12.00;;;6.93;;
16892;SDS011;8563;52.242;9.098;2024-02-16T14:47:02;10.20;;;6.60;;
16892;SDS011;8563;52.242;9.098;2024-02-16T14:49:34;11.83;;;6.90;;
16892;SDS011;8563;52.242;9.098;2024-02-16T14:52:07;11.13;;;7.00;;
16892;SDS011;8563;52.242;9.098;2024-02-16T14:54:41;11.17;;;7.27;;
16892;SDS011;8563;52.242;9.098;2024-02-16T14:57:13;9.53;;;6.70;;
16892;SDS011;8563;52.242;9.098;2024-02-16T14:59:50;11.33;;;10.23;;
16892;SDS011;8563;52.242;9.098;2024-02-16T15:02:25;13.20;;;8.07;;
16892;SDS011;8563;52.242;9.098;2024-02-16T15:04:58;12.50;;;10.13;;
16892;SDS011;8563;52.242;9.098;2024-02-16T15:07:30;12.17;;;9.30;;
16892;SDS011;8563;52.242;9.098;2024-02-16T15:10:04;11.90;;;9.00;;
16892;SDS011;8563;52.242;9.098;2024-02-16T15:12:37;11.63;;;8.93;;
16892;SDS011;8563;52.242;9.098;2024-02-16T15:15:10;11.30;;;8.60;;
16892;SDS011;8563;52.242;9.098;2024-02-16T15:17:42;11.57;;;9.57;;
16892;SDS011;8563;52.242;9.098;2024-02-16T15:20:15;12.87;;;10.10;;
16892;SDS011;8563;52.242;9.098;2024-02-16T15:22:47;12.23;;;10.97;;
16892;SDS011;8563;52.242;9.098;2024-02-16T15:25:21;14.40;;;11.27;;
16892;SDS011;8563;52.242;9.098;2024-02-16T15:27:54;15.30;;;12.13;;
16892;SDS011;8563;52.242;9.098;2024-02-16T15:30:29;12.37;;;11.03;;
16892;SDS011;8563;52.242;9.098;2024-02-16T15:33:01;13.43;;;11.70;;
16892;SDS011;8563;52.242;9.098;2024-02-16T15:35:34;12.37;;;11.10;;